Terminal Aerodrome Forecast
Issued by NWS

Home | Current Version | Previous Version | Text Only | Print | Product List | Glossary On
Versions: 1 2 3 4 5 6 7 8 9 10 11 12 13 14 15
160
FTUS43 KICT 212325
TAFSLN
TAF
KSLN 212325Z 2200/2224 04006KT 6SM -SHRA OVC008
     FM220300 36008KT P6SM VCSH OVC008
     FM220900 34008KT P6SM OVC015
     FM221200 34007KT P6SM OVC025
     FM221900 02009KT P6SM OVC060=

USA.gov is the U.S. government's official web portal to all federal, state and local government web resources and services.